Time;durP1;ratioP1;P1;durP2;ratioP2;P2;SDS_P1;SDS_P2;PMS_P1;PMS_P2;Temp;Humidity;BMP_temperature;BMP_pressure;BME280_temperature;BME280_humidity;BME280_pressure;Samples;Min_cycle;Max_cycle;Signal;HPM_P1;HPM_P2
2023/04/27 06:04:05;;;;;;;;;;;;;;;7.03;63.02;98337.53;5510356;23;19927;-63
2023/04/27 06:06:31;;;;;;;;;;;;;;;7.12;62.00;98337.91;4870012;29;20389;-63
2023/04/27 06:08:57;;;;;;;;;;;;;;;7.28;61.10;98343.13;4870410;29;19924;-63
2023/04/27 06:11:22;;;;;;;;;;;;;;;7.44;60.92;98337.09;4868511;29;19920;-63
2023/04/27 06:13:47;;;;;;;;;;;;;;;7.53;58.86;98342.66;4866166;29;19923;-64
2023/04/27 06:16:13;;;;;;;;;;;;;;;7.73;58.66;98349.41;4872423;29;19974;-64
2023/04/27 06:18:38;;;;;;;;;;;;;;;7.78;58.52;98341.34;4867492;29;19960;-63
2023/04/27 06:21:03;;;;;;;;;;;;;;;7.90;58.57;98329.38;4870399;29;19926;-62
2023/04/27 06:23:28;;;;;;;;;;;;;;;7.99;58.07;98334.09;4853821;29;19928;-63
2023/04/27 06:25:54;;;;;;;;;;;;;;;8.00;58.13;98326.16;4865643;29;19952;-64
2023/04/27 06:28:19;;;;;;;;;;;;;;;8.21;57.66;98339.75;4867739;29;19987;-64
2023/04/27 06:30:44;;;;;;;;;;;;;;;8.33;57.41;98338.25;4854731;29;19923;-64
2023/04/27 06:33:10;;;;;;;;;;;;;;;8.51;57.29;98334.59;4865895;29;20415;-64
2023/04/27 06:35:35;;;;;;;;;;;;;;;8.65;56.68;98333.78;4852549;29;20283;-64
2023/04/27 06:38:00;;;;;;;;;;;;;;;8.88;56.46;98339.41;4868324;29;19916;-64
2023/04/27 06:40:25;;;;;;;;;;;;;;;8.88;55.64;98349.88;4873213;29;19976;-65
2023/04/27 06:42:51;;;;;;;;;;;;;;;8.89;54.92;98341.13;4872479;29;19919;-65
2023/04/27 06:45:16;;;;;;;;;;;;;;;8.88;54.94;98344.66;4856054;29;19970;-64
2023/04/27 06:47:41;;;;;;;;;;;;;;;8.97;54.45;98355.41;4869712;29;19927;-65
2023/04/27 06:50:06;;;;;;;;;;;;;;;9.04;54.66;98341.03;4862307;29;19939;-63
2023/04/27 06:52:32;;;;;;;;;;;;;;;9.19;54.62;98339.28;4870333;29;20187;-63
2023/04/27 06:54:57;;;;;;;;;;;;;;;9.32;54.88;98341.13;4847657;29;19916;-64
2023/04/27 06:57:23;;;;;;;;;;;;;;;9.44;52.91;98343.00;4869735;29;20447;-63
2023/04/27 06:59:48;;;;;;;;;;;;;;;9.65;53.18;98341.66;4876505;29;20592;-63
2023/04/27 07:02:13;;;;;;;;;;;;;;;9.71;51.69;98341.28;4867484;29;20275;-64
2023/04/27 07:04:38;;;;;;;;;;;;;;;9.99;51.71;98339.53;4879026;29;19923;-64
2023/04/27 07:07:04;;;;;;;;;;;;;;;10.14;50.87;98341.16;4855347;29;19923;-65
2023/04/27 07:09:29;;;;;;;;;;;;;;;12.24;65.06;98336.41;4869217;29;20313;-59
2023/04/27 07:11:56;;;;;;;;;;;;;;;15.38;51.30;98322.81;4864162;29;20504;-62
2023/04/27 07:14:21;;;;;;;;;;;;;;;16.31;44.85;98318.16;4846088;29;20015;-62
2023/04/27 07:16:46;;;;;;;;;;;;;;;14.09;41.11;98322.16;4864021;29;20015;-65
2023/04/27 07:19:11;;;;;;;;;;;;;;;13.14;42.97;98326.16;4854401;29;20019;-65
2023/04/27 07:21:37;;;;;;;;;;;;;;;13.00;43.54;98327.22;4870749;29;20015;-64
2023/04/27 07:24:02;;;;;;;;;;;;;;;12.58;44.25;98329.50;4879078;29;20006;-63
2023/04/27 07:26:28;;;;;;;;;;;;;;;12.26;44.40;98335.38;4874918;29;20302;-64
2023/04/27 07:28:54;;;;;;;;;;;;;;;12.01;43.94;98335.44;4863162;29;19987;-63
2023/04/27 07:31:19;;;;;;;;;;;;;;;12.10;44.37;98335.63;4868118;29;19916;-62
2023/04/27 07:33:45;;;;;;;;;;;;;;;12.01;43.75;98341.56;4861194;29;19920;-64
2023/04/27 07:36:10;;;;;;;;;;;;;;;12.00;44.92;98347.75;4866942;29;19928;-62
2023/04/27 07:38:37;;;;;;;;;;;;;;;12.15;43.47;98342.34;4861393;29;19923;-63
2023/04/27 07:41:04;;;;;;;;;;;;;;;12.28;43.89;98345.75;4861104;29;19972;-63
2023/04/27 07:43:30;;;;;;;;;;;;;;;12.23;42.67;98345.28;4861643;29;19939;-62
2023/04/27 07:45:57;;;;;;;;;;;;;;;12.38;42.51;98354.66;4846498;29;19923;-63
2023/04/27 07:48:23;;;;;;;;;;;;;;;12.55;43.03;98346.34;4844430;29;19917;-62
2023/04/27 07:50:48;;;;;;;;;;;;;;;12.71;42.84;98345.22;4861233;29;20378;-63
2023/04/27 07:53:13;;;;;;;;;;;;;;;12.55;42.92;98346.34;4860865;29;19920;-62
2023/04/27 07:55:40;;;;;;;;;;;;;;;12.69;42.55;98353.22;4860808;29;19924;-62
2023/04/27 07:58:05;;;;;;;;;;;;;;;12.81;42.68;98349.69;4860914;29;19923;-62
2023/04/27 08:00:31;;;;;;;;;;;;;;;13.25;42.61;98350.75;4860778;29;19916;-62
2023/04/27 08:02:56;;;;;;;;;;;;;;;13.26;41.91;98356.84;4844193;29;19916;-65
2023/04/27 08:05:21;;;;;;;;;;;;;;;13.65;42.29;98354.69;4860625;29;19936;-65
2023/04/27 08:07:46;;;;;;;;;;;;;;;13.42;42.02;98362.63;4860822;29;19920;-63
2023/04/27 08:10:12;;;;;;;;;;;;;;;13.01;40.93;98361.34;4860649;29;20347;-65
2023/04/27 08:12:38;;;;;;;;;;;;;;;13.39;40.79;98357.59;4844099;29;19956;-65
2023/04/27 08:15:04;;;;;;;;;;;;;;;13.35;40.21;98358.78;4860531;29;19917;-63
2023/04/27 08:17:29;;;;;;;;;;;;;;;13.63;40.09;98359.28;4844241;29;20011;-64
2023/04/27 08:19:54;;;;;;;;;;;;;;;13.50;40.61;98360.22;4860428;29;19948;-64
2023/04/27 08:22:20;;;;;;;;;;;;;;;13.69;39.22;98353.50;4860567;29;19917;-63
2023/04/27 08:24:45;;;;;;;;;;;;;;;13.82;39.54;98354.19;4860385;29;20390;-64
2023/04/27 08:27:10;;;;;;;;;;;;;;;14.10;40.34;98352.00;4860391;29;19916;-64
2023/04/27 08:29:35;;;;;;;;;;;;;;;14.43;39.92;98351.06;4843750;29;19923;-65
2023/04/27 08:32:01;;;;;;;;;;;;;;;14.33;39.39;98348.31;4860489;29;20394;-63
2023/04/27 08:34:26;;;;;;;;;;;;;;;14.46;40.25;98341.09;4844771;29;20450;-64
2023/04/27 08:36:53;;;;;;;;;;;;;;;14.53;39.46;98344.09;4844010;29;19952;-64
2023/04/27 08:39:18;;;;;;;;;;;;;;;14.41;38.09;98339.78;4860147;29;19958;-64
2023/04/27 08:41:43;;;;;;;;;;;;;;;14.41;38.14;98337.97;4860283;29;19955;-63
2023/04/27 08:44:08;;;;;;;;;;;;;;;15.01;41.95;98340.13;4860337;29;19963;-62
2023/04/27 08:46:33;;;;;;;;;;;;;;;15.13;37.23;98341.72;4860305;29;20382;-63
2023/04/27 08:48:59;;;;;;;;;;;;;;;14.93;37.13;98341.63;4843347;29;20422;-63
2023/04/27 08:51:26;;;;;;;;;;;;;;;15.32;37.85;98341.00;4860127;29;19916;-62
2023/04/27 08:53:52;;;;;;;;;;;;;;;15.52;38.69;98340.13;4859860;29;19945;-63
2023/04/27 08:56:18;;;;;;;;;;;;;;;15.77;38.05;98328.25;4843441;29;19928;-63
2023/04/27 08:58:43;;;;;;;;;;;;;;;15.97;39.36;98329.16;4859886;29;19916;-62
2023/04/27 09:01:08;;;;;;;;;;;;;;;16.28;38.15;98329.88;4860146;29;19976;-62
2023/04/27 09:03:33;;;;;;;;;;;;;;;15.97;34.66;98330.97;4859853;29;19921;-64
2023/04/27 09:06:05;;;;;;;;;;;;;;;15.86;34.64;98332.75;4843472;29;19916;-64
2023/04/27 09:08:46;;;;;;;;;;;;;;;16.23;35.76;98334.75;4842641;29;19920;-63
2023/04/27 09:11:12;;;;;;;;;;;;;;;16.53;35.92;98328.50;4854083;29;19916;-64
2023/04/27 09:13:37;;;;;;;;;;;;;;;16.78;35.45;98324.47;4863825;29;19924;-63
2023/04/27 09:16:03;;;;;;;;;;;;;;;16.96;36.90;98324.56;4859793;29;19917;-64
2023/04/27 09:18:28;;;;;;;;;;;;;;;16.77;33.01;98322.78;4859887;29;19916;-64
2023/04/27 09:20:53;;;;;;;;;;;;;;;16.68;33.30;98312.19;4859474;29;19916;-63
2023/04/27 09:23:25;;;;;;;;;;;;;;;16.76;34.45;98310.53;4859592;29;20443;-63
2023/04/27 09:25:50;;;;;;;;;;;;;;;17.29;34.75;98317.94;4859647;29;20283;-65
2023/04/27 09:28:15;;;;;;;;;;;;;;;17.29;33.33;98311.81;4859622;29;19924;-65
2023/04/27 09:30:41;;;;;;;;;;;;;;;17.59;31.90;98308.06;4859475;29;19928;-65
2023/04/27 09:33:06;;;;;;;;;;;;;;;17.94;31.41;98309.16;4842853;29;19935;-64
2023/04/27 09:35:31;;;;;;;;;;;;;;;18.05;32.33;98295.66;4859583;29;19923;-64
2023/04/27 09:37:57;;;;;;;;;;;;;;;17.89;29.89;98295.47;4859553;29;19916;-64
2023/04/27 09:40:28;;;;;;;;;;;;;;;17.99;30.25;98293.59;4843099;29;19920;-64
2023/04/27 09:42:57;;;;;;;;;;;;;;;18.80;32.83;98292.72;4843727;29;19978;-66
2023/04/27 09:45:25;;;;;;;;;;;;;;;18.97;31.36;98286.50;4859553;29;19920;-64
2023/04/27 09:47:50;;;;;;;;;;;;;;;18.97;28.90;98286.50;4843112;29;19982;-64
2023/04/27 09:50:16;;;;;;;;;;;;;;;19.42;28.25;98282.78;4859140;29;20218;-64
2023/04/27 09:52:41;;;;;;;;;;;;;;;20.05;28.40;98285.00;4863568;29;19924;-67
2023/04/27 09:55:11;;;;;;;;;;;;;;;19.11;26.66;98272.63;4854454;29;20409;-67
2023/04/27 09:57:39;;;;;;;;;;;;;;;18.98;26.86;98277.53;4839801;29;19916;-67
2023/04/27 10:00:09;;;;;;;;;;;;;;;18.68;27.39;98287.59;4877004;29;19932;-67
2023/04/27 10:02:39;;;;;;;;;;;;;;;18.52;28.23;98282.16;4872966;29;19942;-67
2023/04/27 10:05:23;;;;;;;;;;;;;;;19.17;29.27;98279.16;4852271;29;19920;-67
2023/04/27 10:07:48;;;;;;;;;;;;;;;18.91;27.44;98274.66;4875183;29;20398;-68
2023/04/27 10:10:17;;;;;;;;;;;;;;;18.97;27.18;98271.41;4861375;29;20393;-67
2023/04/27 10:12:42;;;;;;;;;;;;;;;19.33;27.35;98278.41;4859333;29;19923;-66
2023/04/27 10:15:11;;;;;;;;;;;;;;;19.06;26.85;98274.91;4873870;29;19920;-67
2023/04/27 10:17:36;;;;;;;;;;;;;;;19.28;27.61;98278.06;4850460;29;19924;-67
2023/04/27 10:20:02;;;;;;;;;;;;;;;19.45;28.22;98274.47;4862270;29;19916;-66
2023/04/27 10:22:38;;;;;;;;;;;;;;;20.18;28.44;98281.03;4846383;29;19916;-67
2023/04/27 10:25:11;;;;;;;;;;;;;;;20.18;27.67;98278.38;4853995;29;20003;-67
2023/04/27 10:27:38;;;;;;;;;;;;;;;20.25;25.51;98282.03;4841971;29;19923;-67
2023/04/27 10:30:07;;;;;;;;;;;;;;;20.66;27.08;98269.59;4846024;29;19947;-67
2023/04/27 10:32:32;;;;;;;;;;;;;;;21.17;25.45;98269.38;4846128;29;19975;-67
2023/04/27 10:35:06;;;;;;;;;;;;;;;21.54;25.81;98269.59;4864564;29;19956;-67
2023/04/27 10:37:43;;;;;;;;;;;;;;;20.46;25.10;98266.41;4870097;29;19924;-66
2023/04/27 10:40:09;;;;;;;;;;;;;;;20.75;26.32;98267.75;4880530;29;19922;-66
2023/04/27 10:42:34;;;;;;;;;;;;;;;21.67;27.27;98262.84;4864356;29;19916;-67
2023/04/27 10:44:59;;;;;;;;;;;;;;;21.72;25.24;98258.66;4878087;29;19920;-67
2023/04/27 10:47:34;;;;;;;;;;;;;;;21.28;25.81;98255.66;4875309;29;19976;-67
2023/04/27 10:50:00;;;;;;;;;;;;;;;21.58;25.02;98263.91;4853294;29;19916;-67
2023/04/27 10:52:25;;;;;;;;;;;;;;;22.10;24.95;98257.97;4869413;29;20301;-67
2023/04/27 10:54:50;;;;;;;;;;;;;;;22.84;25.20;98256.34;4878107;29;20007;-67
2023/04/27 10:57:15;;;;;;;;;;;;;;;23.38;23.65;98248.13;4871909;29;20023;-67
2023/04/27 10:59:48;;;;;;;;;;;;;;;24.20;23.71;98252.41;4853035;29;19998;-67
2023/04/27 11:02:13;;;;;;;;;;;;;;;23.77;22.45;98249.66;4846691;29;19920;-67
2023/04/27 11:04:40;;;;;;;;;;;;;;;24.43;22.92;98256.75;4869546;29;20302;-67
2023/04/27 11:07:09;;;;;;;;;;;;;;;24.00;22.68;98254.03;4862261;29;19964;-67
2023/04/27 11:09:37;;;;;;;;;;;;;;;23.13;22.95;98254.78;4861879;29;19927;-67
2023/04/27 11:12:05;;;;;;;;;;;;;;;23.04;24.24;98250.53;4845383;29;20351;-67
2023/04/27 11:14:30;;;;;;;;;;;;;;;23.32;24.02;98246.19;4870107;29;19980;-66
2023/04/27 11:16:55;;;;;;;;;;;;;;;22.78;24.03;98249.09;4869591;29;19916;-67
2023/04/27 11:19:21;;;;;;;;;;;;;;;22.74;24.63;98253.13;4861900;29;20223;-67
2023/04/27 11:21:46;;;;;;;;;;;;;;;23.19;23.62;98248.66;4861430;29;19972;-67
2023/04/27 11:24:11;;;;;;;;;;;;;;;23.69;23.24;98245.25;4872873;29;19919;-67
2023/04/27 11:26:36;;;;;;;;;;;;;;;23.32;23.32;98240.81;4869372;29;19972;-67
2023/04/27 11:29:08;;;;;;;;;;;;;;;22.82;23.18;98253.06;4862186;29;19923;-67
2023/04/27 11:31:37;;;;;;;;;;;;;;;23.64;25.07;98258.34;4861017;29;19923;-67
2023/04/27 11:34:02;;;;;;;;;;;;;;;24.22;26.81;98254.88;4867868;29;20398;-67
2023/04/27 11:36:28;;;;;;;;;;;;;;;24.53;24.82;98251.91;4868410;29;19945;-67
2023/04/27 11:38:56;;;;;;;;;;;;;;;23.07;24.69;98259.00;4847193;29;19916;-67
2023/04/27 11:41:22;;;;;;;;;;;;;;;22.09;25.20;98254.44;4845029;29;20371;-67
2023/04/27 11:43:48;;;;;;;;;;;;;;;21.86;24.61;98259.75;4862038;29;20014;-67
2023/04/27 11:46:13;;;;;;;;;;;;;;;22.55;25.63;98256.31;4871528;29;19920;-67
2023/04/27 11:48:39;;;;;;;;;;;;;;;22.10;24.28;98252.63;4865680;29;20185;-67
2023/04/27 11:51:04;;;;;;;;;;;;;;;21.43;25.03;98253.94;4844610;29;19939;-67
2023/04/27 11:53:36;;;;;;;;;;;;;;;20.88;25.64;98249.41;4844618;29;19955;-67
2023/04/27 11:56:03;;;;;;;;;;;;;;;21.40;24.73;98259.63;4856023;29;20211;-67
2023/04/27 11:58:29;;;;;;;;;;;;;;;23.10;26.30;98249.78;4868841;29;19923;-67
2023/04/27 12:00:55;;;;;;;;;;;;;;;23.51;23.02;98247.47;4844395;29;19916;-67
2023/04/27 12:03:20;;;;;;;;;;;;;;;24.00;23.10;98254.88;4860945;29;20015;-67
2023/04/27 12:05:49;;;;;;;;;;;;;;;23.88;22.53;98248.34;4868908;29;20418;-66
2023/04/27 12:08:15;;;;;;;;;;;;;;;22.92;22.89;98242.97;4868584;29;20331;-67
2023/04/27 12:10:40;;;;;;;;;;;;;;;22.98;23.68;98247.56;4844361;29;19952;-67
2023/04/27 12:13:06;;;;;;;;;;;;;;;23.75;22.96;98238.31;4860868;29;20373;-67
2023/04/27 12:15:31;;;;;;;;;;;;;;;23.74;22.58;98239.31;4846104;29;19968;-67
2023/04/27 12:17:56;;;;;;;;;;;;;;;23.61;21.92;98226.59;4852383;29;19920;-67
2023/04/27 12:20:22;;;;;;;;;;;;;;;23.76;23.01;98233.78;4868652;29;19935;-67
2023/04/27 12:22:47;;;;;;;;;;;;;;;23.36;22.53;98228.72;4868383;29;20025;-66
2023/04/27 12:25:12;;;;;;;;;;;;;;;23.82;23.29;98223.16;4860862;29;19916;-67
2023/04/27 12:27:38;;;;;;;;;;;;;;;24.38;21.86;98225.16;4860806;29;19916;-67
2023/04/27 12:30:03;;;;;;;;;;;;;;;24.38;21.94;98220.63;4860256;29;19916;-67
2023/04/27 12:32:29;;;;;;;;;;;;;;;24.45;21.74;98223.38;4868928;29;20019;-67
2023/04/27 12:34:54;;;;;;;;;;;;;;;24.10;21.97;98225.91;4854662;29;19916;-67
2023/04/27 12:37:20;;;;;;;;;;;;;;;23.95;22.56;98229.66;4862419;29;19989;-67
2023/04/27 12:39:46;;;;;;;;;;;;;;;23.20;22.37;98226.28;4878871;29;20342;-67
2023/04/27 12:42:11;;;;;;;;;;;;;;;22.45;23.65;98227.97;4874489;29;20474;-66
2023/04/27 12:44:36;;;;;;;;;;;;;;;22.74;24.33;98219.19;4871065;29;20279;-67
2023/04/27 12:47:02;;;;;;;;;;;;;;;23.17;24.26;98218.63;4845178;29;20374;-67
2023/04/27 12:49:28;;;;;;;;;;;;;;;22.89;24.26;98227.25;4860127;29;19917;-67
2023/04/27 12:51:53;;;;;;;;;;;;;;;22.84;25.05;98223.44;4860746;29;20013;-67
2023/04/27 12:54:18;;;;;;;;;;;;;;;23.08;24.80;98227.75;4862083;29;19924;-66
2023/04/27 12:56:43;;;;;;;;;;;;;;;22.95;24.07;98221.19;4867889;29;19920;-67
2023/04/27 12:59:09;;;;;;;;;;;;;;;22.90;23.73;98217.38;4860062;29;19923;-67
2023/04/27 13:01:35;;;;;;;;;;;;;;;23.58;22.83;98220.78;4843612;29;19916;-67
2023/04/27 13:04:01;;;;;;;;;;;;;;;24.36;22.14;98214.63;4862265;29;19924;-67
2023/04/27 13:06:26;;;;;;;;;;;;;;;25.53;21.31;98211.31;4853168;29;20383;-67
2023/04/27 13:08:51;;;;;;;;;;;;;;;25.52;20.66;98214.19;4875904;29;19916;-68
2023/04/27 13:11:16;;;;;;;;;;;;;;;25.73;20.17;98210.53;4862060;29;19971;-67
2023/04/27 13:13:42;;;;;;;;;;;;;;;26.18;20.19;98203.63;4877536;29;19924;-67
2023/04/27 13:16:07;;;;;;;;;;;;;;;26.56;19.62;98205.75;4855185;29;19931;-67
2023/04/27 13:18:33;;;;;;;;;;;;;;;26.56;18.99;98205.75;4867587;29;19916;-67
2023/04/27 13:20:58;;;;;;;;;;;;;;;27.34;18.64;98202.31;4859789;29;19923;-67
2023/04/27 13:23:25;;;;;;;;;;;;;;;27.58;18.48;98201.59;4859503;29;19988;-67
2023/04/27 13:25:51;;;;;;;;;;;;;;;27.80;18.26;98201.31;4861877;29;19927;-67
2023/04/27 13:28:16;;;;;;;;;;;;;;;25.95;19.88;98197.81;4850527;29;19916;-67
2023/04/27 13:30:41;;;;;;;;;;;;;;;26.38;19.36;98203.66;4860014;29;19920;-67
2023/04/27 13:33:11;;;;;;;;;;;;;;;25.36;19.85;98195.72;4843291;29;19976;-67
2023/04/27 13:35:36;;;;;;;;;;;;;;;25.04;20.71;98192.66;4852605;29;19972;-67
2023/04/27 13:38:01;;;;;;;;;;;;;;;24.54;20.88;98189.25;4852207;29;19920;-67
2023/04/27 13:40:27;;;;;;;;;;;;;;;24.08;21.39;98189.63;4859721;29;19945;-67
2023/04/27 13:42:52;;;;;;;;;;;;;;;25.75;19.85;98192.38;4843276;29;20375;-67
2023/04/27 13:45:17;;;;;;;;;;;;;;;26.68;18.62;98182.56;4868062;29;20291;-66
2023/04/27 13:47:43;;;;;;;;;;;;;;;26.78;18.81;98178.66;4867357;29;20304;-67
2023/04/27 13:50:09;;;;;;;;;;;;;;;24.78;20.90;98191.47;4859556;29;20345;-67
2023/04/27 13:52:34;;;;;;;;;;;;;;;24.23;21.60;98179.69;4843120;29;20039;-67
2023/04/27 13:55:00;;;;;;;;;;;;;;;24.35;22.12;98180.78;4848082;29;19920;-68
2023/04/27 13:57:25;;;;;;;;;;;;;;;23.65;21.98;98179.69;4874171;29;19988;-67
2023/04/27 13:59:51;;;;;;;;;;;;;;;24.56;21.33;98176.44;4849043;29;19920;-67
2023/04/27 14:02:16;;;;;;;;;;;;;;;25.22;21.09;98165.31;4863363;29;19923;-67
2023/04/27 14:04:41;;;;;;;;;;;;;;;25.24;20.54;98165.94;4863411;29;19940;-67
2023/04/27 14:07:06;;;;;;;;;;;;;;;24.45;21.25;98164.41;4865991;29;19928;-66
2023/04/27 14:09:32;;;;;;;;;;;;;;;26.03;20.19;98162.69;4851351;29;19923;-67
2023/04/27 14:11:57;;;;;;;;;;;;;;;27.50;18.48;98160.63;4863405;29;20446;-65
2023/04/27 14:14:23;;;;;;;;;;;;;;;28.62;18.84;98162.56;4862910;29;19920;-65
2023/04/27 14:16:49;;;;;;;;;;;;;;;29.15;17.76;98155.84;4870759;29;19926;-65
2023/04/27 14:19:15;;;;;;;;;;;;;;;28.61;17.29;98155.53;4853686;29;20430;-65
2023/04/27 14:21:40;;;;;;;;;;;;;;;27.53;18.55;98152.94;4846362;29;19935;-65
2023/04/27 14:24:05;;;;;;;;;;;;;;;26.70;19.70;98158.16;4862826;29;19920;-65
2023/04/27 14:26:31;;;;;;;;;;;;;;;25.62;21.04;98158.22;4850170;29;19946;-65
2023/04/27 14:28:56;;;;;;;;;;;;;;;25.52;22.02;98155.09;4872411;29;19920;-64
2023/04/27 14:31:21;;;;;;;;;;;;;;;24.71;23.03;98162.94;4869282;29;19939;-65
2023/04/27 14:33:47;;;;;;;;;;;;;;;24.42;22.93;98166.66;4862541;29;20486;-67
2023/04/27 14:36:12;;;;;;;;;;;;;;;23.91;23.14;98164.94;4862725;29;20306;-67
2023/04/27 14:38:37;;;;;;;;;;;;;;;23.51;23.30;98161.81;4876361;29;20279;-67
2023/04/27 14:41:02;;;;;;;;;;;;;;;23.20;24.13;98162.06;4856609;29;19939;-67
2023/04/27 14:43:27;;;;;;;;;;;;;;;23.07;24.26;98159.22;4864260;29;19923;-67
2023/04/27 14:45:53;;;;;;;;;;;;;;;23.04;24.67;98162.25;4881315;29;19920;-65
2023/04/27 14:48:18;;;;;;;;;;;;;;;22.84;24.22;98170.78;4875802;29;19926;-65
2023/04/27 14:50:43;;;;;;;;;;;;;;;22.96;23.90;98164.00;4855675;29;20030;-66
2023/04/27 14:53:08;;;;;;;;;;;;;;;22.50;24.07;98169.50;4862612;29;20371;-66
2023/04/27 14:55:34;;;;;;;;;;;;;;;23.54;22.96;98171.31;4862403;29;19916;-66
2023/04/27 14:57:59;;;;;;;;;;;;;;;25.24;20.69;98169.47;4862647;29;19987;-66
2023/04/27 15:00:24;;;;;;;;;;;;;;;25.62;21.08;98165.47;4869368;29;19919;-66
2023/04/27 15:02:49;;;;;;;;;;;;;;;26.52;20.17;98166.84;4869819;29;19969;-66
2023/04/27 15:05:15;;;;;;;;;;;;;;;28.75;18.08;98161.63;4860949;29;19920;-65
2023/04/27 15:07:40;;;;;;;;;;;;;;;29.96;17.60;98156.44;4862628;29;19948;-66
2023/04/27 15:10:05;;;;;;;;;;;;;;;30.22;16.54;98160.66;4870979;29;20294;-66
2023/04/27 15:12:31;;;;;;;;;;;;;;;28.29;18.63;98162.03;4872660;29;19946;-66
2023/04/27 15:14:56;;;;;;;;;;;;;;;26.13;20.74;98157.75;4880585;29;19916;-66
2023/04/27 15:17:21;;;;;;;;;;;;;;;25.26;20.88;98162.03;4880633;29;20352;-66
2023/04/27 15:19:47;;;;;;;;;;;;;;;27.72;17.98;98158.44;4857780;29;20366;-63
2023/04/27 15:22:12;;;;;;;;;;;;;;;29.23;16.88;98152.00;4851325;29;19920;-64
2023/04/27 15:24:37;;;;;;;;;;;;;;;29.31;16.60;98155.19;4866243;29;19936;-63
2023/04/27 15:27:03;;;;;;;;;;;;;;;30.06;16.44;98145.06;4861990;29;19916;-64
2023/04/27 15:29:28;;;;;;;;;;;;;;;30.73;15.66;98140.22;4861617;29;19972;-64
2023/04/27 15:31:53;;;;;;;;;;;;;;;31.13;15.44;98142.16;4866266;29;19924;-64
2023/04/27 15:34:18;;;;;;;;;;;;;;;31.19;15.17;98131.19;4872217;29;19927;-64
2023/04/27 15:36:44;;;;;;;;;;;;;;;31.38;15.11;98134.59;4880174;29;20309;-65
2023/04/27 15:39:09;;;;;;;;;;;;;;;31.20;15.78;98127.41;4850072;29;20290;-63
2023/04/27 15:41:34;;;;;;;;;;;;;;;30.00;16.65;98142.22;4873370;29;20298;-64
2023/04/27 15:43:59;;;;;;;;;;;;;;;30.43;15.93;98132.22;4878793;29;20057;-64
2023/04/27 15:46:25;;;;;;;;;;;;;;;31.65;15.14;98134.81;4874698;29;19975;-64
2023/04/27 15:48:50;;;;;;;;;;;;;;;31.74;15.44;98129.84;4869420;29;19924;-63
2023/04/27 15:51:15;;;;;;;;;;;;;;;31.26;15.74;98127.53;4866465;29;19927;-64
2023/04/27 15:53:40;;;;;;;;;;;;;;;30.20;16.33;98122.19;4859467;29;20010;-66
2023/04/27 15:56:06;;;;;;;;;;;;;;;28.51;17.99;98122.84;4877828;29;19920;-65
2023/04/27 15:58:31;;;;;;;;;;;;;;;27.34;19.27;98121.53;4871759;29;19963;-65
2023/04/27 16:00:58;;;;;;;;;;;;;;;26.40;19.93;98120.09;4867370;29;19923;-64
2023/04/27 16:03:24;;;;;;;;;;;;;;;26.61;19.39;98124.44;4869430;29;19920;-64
2023/04/27 16:05:49;;;;;;;;;;;;;;;28.50;18.50;98133.84;4846632;29;19920;-64
2023/04/27 16:08:15;;;;;;;;;;;;;;;28.80;18.70;98121.31;4860504;29;20379;-64
2023/04/27 16:10:40;;;;;;;;;;;;;;;27.39;19.05;98124.41;4859886;29;19923;-64
2023/04/27 16:13:05;;;;;;;;;;;;;;;29.57;17.85;98127.03;4846936;29;20011;-65
2023/04/27 16:15:30;;;;;;;;;;;;;;;30.16;16.41;98118.28;4870703;29;20007;-66
2023/04/27 16:17:55;;;;;;;;;;;;;;;29.75;17.21;98119.94;4862408;29;20434;-65
2023/04/27 16:20:21;;;;;;;;;;;;;;;29.66;17.01;98113.22;4843390;29;20434;-65
2023/04/27 16:22:46;;;;;;;;;;;;;;;30.53;16.92;98118.09;4859946;29;20511;-63
2023/04/27 16:25:11;;;;;;;;;;;;;;;29.84;17.04;98105.06;4868541;29;19920;-64
2023/04/27 16:27:37;;;;;;;;;;;;;;;28.41;18.86;98106.31;4867720;29;19916;-63
2023/04/27 16:30:03;;;;;;;;;;;;;;;27.78;18.98;98106.41;4843186;29;19916;-65
2023/04/27 16:32:28;;;;;;;;;;;;;;;26.10;19.89;98104.41;4843003;29;20302;-65
2023/04/27 16:34:53;;;;;;;;;;;;;;;24.71;21.10;98104.78;4859926;29;20387;-65
2023/04/27 16:37:18;;;;;;;;;;;;;;;23.93;22.37;98107.47;4867243;29;20390;-65
2023/04/27 16:39:43;;;;;;;;;;;;;;;23.19;23.19;98112.22;4874431;29;19947;-67
2023/04/27 16:42:09;;;;;;;;;;;;;;;22.49;23.94;98111.69;4878081;29;19930;-63
2023/04/27 16:44:35;;;;;;;;;;;;;;;22.25;24.11;98111.94;4874857;29;19920;-64
2023/04/27 16:47:00;;;;;;;;;;;;;;;21.98;24.76;98110.66;4854457;29;20369;-65
2023/04/27 16:49:25;;;;;;;;;;;;;;;21.59;25.15;98108.13;4871962;29;19915;-61
2023/04/27 16:51:53;;;;;;;;;;;;;;;21.44;25.81;98106.22;4861103;29;19920;-63
2023/04/27 16:54:19;;;;;;;;;;;;;;;21.33;26.19;98111.91;4878189;29;19963;-63
2023/04/27 16:56:45;;;;;;;;;;;;;;;21.24;26.86;98118.31;4869736;29;20339;-62
2023/04/27 16:59:11;;;;;;;;;;;;;;;21.29;27.65;98118.59;4867412;29;19916;-63
2023/04/27 17:01:36;;;;;;;;;;;;;;;21.77;27.01;98114.81;4859716;29;19963;-63
2023/04/27 17:04:02;;;;;;;;;;;;;;;21.72;25.99;98114.53;4857782;29;20581;-63
2023/04/27 17:06:27;;;;;;;;;;;;;;;21.84;26.02;98114.09;4864778;29;19920;-63
2023/04/27 17:08:55;;;;;;;;;;;;;;;21.59;26.73;98105.47;4868560;29;20006;-65
2023/04/27 17:11:21;;;;;;;;;;;;;;;21.50;26.78;98102.00;4859404;29;19923;-62
2023/04/27 17:13:48;;;;;;;;;;;;;;;21.12;27.24;98095.69;4859130;29;19920;-62
2023/04/27 17:16:14;;;;;;;;;;;;;;;21.19;27.36;98104.66;4859360;29;19947;-63
2023/04/27 17:18:41;;;;;;;;;;;;;;;21.66;27.15;98104.56;4865128;29;19920;-62
2023/04/27 17:21:06;;;;;;;;;;;;;;;21.48;27.00;98104.84;4866599;29;20386;-62
2023/04/27 17:23:32;;;;;;;;;;;;;;;21.63;27.39;98101.41;4859380;29;19933;-64
2023/04/27 17:25:58;;;;;;;;;;;;;;;21.25;27.69;98095.97;4827749;29;20264;-62
2023/04/27 17:28:23;;;;;;;;;;;;;;;20.94;27.90;98101.28;4860806;29;19991;-64
2023/04/27 17:30:48;;;;;;;;;;;;;;;20.71;28.17;98102.03;4874028;29;20293;-64
2023/04/27 17:33:14;;;;;;;;;;;;;;;20.34;26.99;98106.09;4863771;29;20310;-64
2023/04/27 17:35:43;;;;;;;;;;;;;;;20.10;27.59;98104.31;4844638;29;19931;-63
2023/04/27 17:38:08;;;;;;;;;;;;;;;19.94;28.83;98106.97;4854456;29;20027;-62
2023/04/27 17:40:33;;;;;;;;;;;;;;;19.67;29.36;98102.81;4865692;29;20022;-64
2023/04/27 17:42:58;;;;;;;;;;;;;;;19.43;29.62;98100.91;4874585;29;20378;-63
2023/04/27 17:45:25;;;;;;;;;;;;;;;19.23;29.43;98099.53;4861235;29;20370;-62
2023/04/27 17:47:50;;;;;;;;;;;;;;;19.00;30.04;98105.47;4866997;29;19916;-62
2023/04/27 17:50:15;;;;;;;;;;;;;;;18.79;30.11;98107.69;4873149;29;20010;-63
2023/04/27 17:52:41;;;;;;;;;;;;;;;18.73;30.66;98104.69;4861903;29;19935;-62
2023/04/27 17:55:06;;;;;;;;;;;;;;;18.50;31.46;98098.22;4863998;29;19927;-63
2023/04/27 17:57:32;;;;;;;;;;;;;;;18.38;31.90;98094.19;4864730;29;20462;-62
2023/04/27 17:59:57;;;;;;;;;;;;;;;18.26;32.05;98094.44;4867581;29;20504;-63
2023/04/27 18:02:22;;;;;;;;;;;;;;;18.06;33.16;98100.94;4865220;29;19972;-63
2023/04/27 18:04:48;;;;;;;;;;;;;;;17.81;33.07;98096.44;4877278;29;20382;-64
2023/04/27 18:07:13;;;;;;;;;;;;;;;17.72;33.66;98100.78;4858940;29;20459;-63
2023/04/27 18:09:38;;;;;;;;;;;;;;;17.56;34.04;98096.19;4860216;29;20426;-64
2023/04/27 18:12:09;;;;;;;;;;;;;;;17.63;47.11;98105.22;4858957;29;20370;-60
2023/04/27 18:14:34;;;;;;;;;;;;;;;18.55;43.44;98100.41;4863822;29;19955;-59
2023/04/27 18:16:59;;;;;;;;;;;;;;;18.70;42.85;98093.53;4860089;29;19978;-61
2023/04/27 18:19:25;;;;;;;;;;;;;;;18.74;41.55;98098.38;4858259;29;19916;-60
2023/04/27 18:21:50;;;;;;;;;;;;;;;18.72;40.75;98102.22;4858206;29;19916;-59
2023/04/27 18:24:16;;;;;;;;;;;;;;;18.68;40.74;98101.63;4863369;29;19984;-60
2023/04/27 18:26:41;;;;;;;;;;;;;;;18.63;40.67;98098.63;4866367;29;19924;-61
2023/04/27 18:29:06;;;;;;;;;;;;;;;18.59;40.63;98105.25;4876493;29;19923;-61
2023/04/27 18:31:31;;;;;;;;;;;;;;;18.55;39.96;98111.03;4877009;29;19923;-60
2023/04/27 18:33:57;;;;;;;;;;;;;;;18.52;40.52;98103.41;4867973;29;19928;-61
2023/04/27 18:36:24;;;;;;;;;;;;;;;18.47;39.79;98109.16;4857494;29;19936;-60
2023/04/27 18:38:49;;;;;;;;;;;;;;;18.44;40.40;98120.09;4868707;29;20015;-60
2023/04/27 18:41:15;;;;;;;;;;;;;;;18.38;40.20;98120.75;4869532;29;20006;-58
2023/04/27 18:43:41;;;;;;;;;;;;;;;18.34;40.50;98124.69;4870875;29;19950;-60